sensor_id;sensor_type;location;lat;lon;timestamp;pressure;altitude;pressure_sealevel;temperature;humidity
75065;BME280;63646;49.110;9.140;2023-01-26T05:02:35;99825.28;;;20.19;52.51
75065;BME280;63646;49.110;9.140;2023-01-26T05:05:01;99824.44;;;20.18;52.59
75065;BME280;63646;49.110;9.140;2023-01-26T05:07:27;99830.59;;;20.19;52.75
75065;BME280;63646;49.110;9.140;2023-01-26T05:09:52;99823.47;;;20.19;52.59
75065;BME280;63646;49.110;9.140;2023-01-26T05:12:19;99826.97;;;20.20;52.49
75065;BME280;63646;49.110;9.140;2023-01-26T05:15:01;99829.50;;;20.21;52.68
75065;BME280;63646;49.110;9.140;2023-01-26T05:17:27;99825.97;;;20.21;52.48
75065;BME280;63646;49.110;9.140;2023-01-26T05:19:52;99830.06;;;20.25;52.36
75065;BME280;63646;49.110;9.140;2023-01-26T05:22:17;99830.06;;;20.25;52.38
75065;BME280;63646;49.110;9.140;2023-01-26T05:24:43;99823.81;;;20.26;52.30
75065;BME280;63646;49.110;9.140;2023-01-26T05:27:08;99829.81;;;20.28;52.38
75065;BME280;63646;49.110;9.140;2023-01-26T05:29:47;99828.88;;;20.29;52.50
75065;BME280;63646;49.110;9.140;2023-01-26T05:32:12;99823.44;;;20.31;52.49
75065;BME280;63646;49.110;9.140;2023-01-26T05:34:38;99821.59;;;20.31;52.27
75065;BME280;63646;49.110;9.140;2023-01-26T05:37:03;99820.63;;;20.32;52.26
75065;BME280;63646;49.110;9.140;2023-01-26T05:39:29;99818.84;;;20.33;52.00
75065;BME280;63646;49.110;9.140;2023-01-26T05:41:54;99814.38;;;20.33;52.03
75065;BME280;63646;49.110;9.140;2023-01-26T05:44:22;99822.19;;;20.35;52.11
75065;BME280;63646;49.110;9.140;2023-01-26T05:46:48;99822.19;;;20.35;51.90
75065;BME280;63646;49.110;9.140;2023-01-26T05:49:13;99827.41;;;20.36;51.89
75065;BME280;63646;49.110;9.140;2023-01-26T05:51:38;99822.94;;;20.37;51.92
75065;BME280;63646;49.110;9.140;2023-01-26T05:54:04;99826.41;;;20.37;51.94
75065;BME280;63646;49.110;9.140;2023-01-26T05:56:29;99823.63;;;20.39;51.84
75065;BME280;63646;49.110;9.140;2023-01-26T05:58:55;99821.81;;;20.39;52.20
75065;BME280;63646;49.110;9.140;2023-01-26T06:01:20;99818.31;;;20.39;51.97
75065;BME280;63646;49.110;9.140;2023-01-26T06:03:46;99815.41;;;20.42;52.19
75065;BME280;63646;49.110;9.140;2023-01-26T06:06:11;99824.94;;;20.44;52.53
75065;BME280;63646;49.110;9.140;2023-01-26T06:08:36;99823.97;;;20.45;52.58
75065;BME280;63646;49.110;9.140;2023-01-26T06:11:02;99820.09;;;20.49;52.60
75065;BME280;63646;49.110;9.140;2023-01-26T06:13:28;99820.00;;;20.51;52.88
75065;BME280;63646;49.110;9.140;2023-01-26T06:15:53;99817.34;;;20.51;52.65
75065;BME280;63646;49.110;9.140;2023-01-26T06:18:19;99814.53;;;20.53;52.54
75065;BME280;63646;49.110;9.140;2023-01-26T06:20:44;99816.22;;;20.54;52.64
75065;BME280;63646;49.110;9.140;2023-01-26T06:23:10;99821.28;;;20.57;52.63
75065;BME280;63646;49.110;9.140;2023-01-26T06:25:37;99815.00;;;20.58;51.80
75065;BME280;63646;49.110;9.140;2023-01-26T06:28:05;99822.94;;;20.58;51.87
75065;BME280;63646;49.110;9.140;2023-01-26T06:30:30;99818.63;;;20.57;51.58
75065;BME280;63646;49.110;9.140;2023-01-26T06:32:57;99826.72;;;20.55;51.44
75065;BME280;63646;49.110;9.140;2023-01-26T06:35:22;99828.25;;;20.58;51.31
75065;BME280;63646;49.110;9.140;2023-01-26T06:37:48;99828.25;;;20.58;51.68
75065;BME280;63646;49.110;9.140;2023-01-26T06:40:14;99830.81;;;20.59;51.76
75065;BME280;63646;49.110;9.140;2023-01-26T06:42:46;99821.13;;;20.58;51.71
75065;BME280;63646;49.110;9.140;2023-01-26T06:45:11;99828.00;;;20.61;51.92
75065;BME280;63646;49.110;9.140;2023-01-26T06:47:36;99827.31;;;20.59;51.89
75065;BME280;63646;49.110;9.140;2023-01-26T06:50:02;99827.03;;;20.62;51.88
75065;BME280;63646;49.110;9.140;2023-01-26T06:52:30;99836.69;;;20.63;51.94
75065;BME280;63646;49.110;9.140;2023-01-26T06:54:57;99832.22;;;20.63;52.36
75065;BME280;63646;49.110;9.140;2023-01-26T06:57:23;99822.31;;;20.65;52.22
75065;BME280;63646;49.110;9.140;2023-01-26T06:59:49;99838.81;;;20.69;51.96
75065;BME280;63646;49.110;9.140;2023-01-26T07:02:20;99831.84;;;20.68;51.95
75065;BME280;63646;49.110;9.140;2023-01-26T07:04:46;99842.44;;;20.68;52.23
75065;BME280;63646;49.110;9.140;2023-01-26T07:07:12;99837.28;;;20.66;52.06
75065;BME280;63646;49.110;9.140;2023-01-26T07:09:38;99839.94;;;20.66;52.13
75065;BME280;63646;49.110;9.140;2023-01-26T07:12:03;99838.13;;;20.67;51.86
75065;BME280;63646;49.110;9.140;2023-01-26T07:14:30;99833.78;;;20.66;52.12
75065;BME280;63646;49.110;9.140;2023-01-26T07:16:56;99839.22;;;20.64;52.27
75065;BME280;63646;49.110;9.140;2023-01-26T07:19:21;99839.22;;;20.64;52.06
75065;BME280;63646;49.110;9.140;2023-01-26T07:21:46;99843.53;;;20.65;52.01
75065;BME280;63646;49.110;9.140;2023-01-26T07:24:13;99848.84;;;20.65;52.28
75065;BME280;63646;49.110;9.140;2023-01-26T07:26:38;99849.72;;;20.66;52.43
75065;BME280;63646;49.110;9.140;2023-01-26T07:29:03;99847.19;;;20.64;52.23
75065;BME280;63646;49.110;9.140;2023-01-26T07:31:29;99849.72;;;20.66;52.33
75065;BME280;63646;49.110;9.140;2023-01-26T07:33:54;99848.00;;;20.65;52.18
75065;BME280;63646;49.110;9.140;2023-01-26T07:36:19;99854.31;;;20.64;52.00
75065;BME280;63646;49.110;9.140;2023-01-26T07:38:46;99850.81;;;20.63;52.31
75065;BME280;63646;49.110;9.140;2023-01-26T07:41:11;99853.31;;;20.65;51.84
75065;BME280;63646;49.110;9.140;2023-01-26T07:43:38;99852.38;;;20.66;51.79
75065;BME280;63646;49.110;9.140;2023-01-26T07:46:04;99848.84;;;20.65;52.01
75065;BME280;63646;49.110;9.140;2023-01-26T07:48:29;99847.06;;;20.66;52.05
75065;BME280;63646;49.110;9.140;2023-01-26T07:50:59;99852.38;;;20.66;51.62
75065;BME280;63646;49.110;9.140;2023-01-26T07:53:25;99848.75;;;20.67;51.90
75065;BME280;63646;49.110;9.140;2023-01-26T07:55:54;99845.25;;;20.66;52.20
75065;BME280;63646;49.110;9.140;2023-01-26T07:58:20;99848.00;;;20.65;52.16
75065;BME280;63646;49.110;9.140;2023-01-26T08:00:46;99848.75;;;20.67;51.98
75065;BME280;63646;49.110;9.140;2023-01-26T08:03:12;99851.41;;;20.67;52.23
75065;BME280;63646;49.110;9.140;2023-01-26T08:05:38;99849.72;;;20.66;52.01
75065;BME280;63646;49.110;9.140;2023-01-26T08:08:04;99850.66;;;20.65;51.83
75065;BME280;63646;49.110;9.140;2023-01-26T08:10:30;99852.38;;;20.66;52.08
75065;BME280;63646;49.110;9.140;2023-01-26T08:12:58;99855.88;;;20.66;52.14
75065;BME280;63646;49.110;9.140;2023-01-26T08:15:25;99857.78;;;20.64;51.54
75065;BME280;63646;49.110;9.140;2023-01-26T08:17:52;99854.31;;;20.64;51.47
75065;BME280;63646;49.110;9.140;2023-01-26T08:20:18;99846.59;;;20.61;51.38
75065;BME280;63646;49.110;9.140;2023-01-26T08:22:43;99850.94;;;20.62;51.22
75065;BME280;63646;49.110;9.140;2023-01-26T08:25:12;99850.22;;;20.60;51.51
75065;BME280;63646;49.110;9.140;2023-01-26T08:27:40;99844.91;;;20.60;51.11
75065;BME280;63646;49.110;9.140;2023-01-26T08:30:06;99844.06;;;20.59;51.36
75065;BME280;63646;49.110;9.140;2023-01-26T08:32:32;99843.25;;;20.59;51.54
75065;BME280;63646;49.110;9.140;2023-01-26T08:34:57;99848.56;;;20.59;51.51
75065;BME280;63646;49.110;9.140;2023-01-26T08:37:22;99841.44;;;20.59;51.53
75065;BME280;63646;49.110;9.140;2023-01-26T08:39:48;99849.38;;;20.59;51.33
75065;BME280;63646;49.110;9.140;2023-01-26T08:42:13;99845.91;;;20.59;51.15
75065;BME280;63646;49.110;9.140;2023-01-26T08:44:39;99843.25;;;20.59;51.61
75065;BME280;63646;49.110;9.140;2023-01-26T08:47:04;99848.56;;;20.59;51.41
75065;BME280;63646;49.110;9.140;2023-01-26T08:49:30;99841.28;;;20.61;51.37
75065;BME280;63646;49.110;9.140;2023-01-26T08:51:55;99844.91;;;20.60;51.68
75065;BME280;63646;49.110;9.140;2023-01-26T08:54:20;99840.31;;;20.62;51.72
75065;BME280;63646;49.110;9.140;2023-01-26T08:56:46;99838.78;;;20.59;51.82
75065;BME280;63646;49.110;9.140;2023-01-26T08:59:11;99844.66;;;20.63;51.77
75065;BME280;63646;49.110;9.140;2023-01-26T09:01:36;99844.91;;;20.60;51.39
75065;BME280;63646;49.110;9.140;2023-01-26T09:04:02;99841.28;;;20.61;51.55
75065;BME280;63646;49.110;9.140;2023-01-26T09:06:27;99840.59;;;20.59;51.66
75065;BME280;63646;49.110;9.140;2023-01-26T09:08:54;99842.50;;;20.57;51.59
75065;BME280;63646;49.110;9.140;2023-01-26T09:11:19;99845.16;;;20.57;51.70
75065;BME280;63646;49.110;9.140;2023-01-26T09:13:49;99841.69;;;20.56;51.58
75065;BME280;63646;49.110;9.140;2023-01-26T09:16:21;99849.78;;;20.55;51.75
75065;BME280;63646;49.110;9.140;2023-01-26T09:18:52;99843.50;;;20.56;51.56
75065;BME280;63646;49.110;9.140;2023-01-26T09:21:19;99845.41;;;20.54;51.72
75065;BME280;63646;49.110;9.140;2023-01-26T09:23:44;99854.38;;;20.53;51.72
75065;BME280;63646;49.110;9.140;2023-01-26T09:26:10;99852.53;;;20.53;51.72
75065;BME280;63646;49.110;9.140;2023-01-26T09:28:36;99847.38;;;20.52;51.49
75065;BME280;63646;49.110;9.140;2023-01-26T09:31:06;99854.38;;;20.53;51.40
75065;BME280;63646;49.110;9.140;2023-01-26T09:33:33;99843.75;;;20.53;51.72
75065;BME280;63646;49.110;9.140;2023-01-26T09:36:09;99851.72;;;20.53;51.76
75065;BME280;63646;49.110;9.140;2023-01-26T09:38:35;99850.88;;;20.52;51.58
75065;BME280;63646;49.110;9.140;2023-01-26T09:46:23;99843.50;;;20.56;51.78
75065;BME280;63646;49.110;9.140;2023-01-26T09:49:05;99847.81;;;20.57;52.08
75065;BME280;63646;49.110;9.140;2023-01-26T09:51:36;99852.16;;;20.58;51.88
75065;BME280;63646;49.110;9.140;2023-01-26T09:56:51;99851.91;;;20.61;51.24
75065;BME280;63646;49.110;9.140;2023-01-26T09:59:29;99854.56;;;20.61;51.30
75065;BME280;63646;49.110;9.140;2023-01-26T10:04:50;99843.81;;;20.62;51.57
75065;BME280;63646;49.110;9.140;2023-01-26T10:07:16;99846.59;;;20.61;51.85
75065;BME280;63646;49.110;9.140;2023-01-26T10:09:45;99847.31;;;20.63;51.97
75065;BME280;63646;49.110;9.140;2023-01-26T10:12:27;99842.97;;;20.62;51.68
75065;BME280;63646;49.110;9.140;2023-01-26T10:14:57;99850.81;;;20.63;51.26
75065;BME280;63646;49.110;9.140;2023-01-26T10:20:00;99855.41;;;20.61;51.97
75065;BME280;63646;49.110;9.140;2023-01-26T10:22:43;99851.66;;;20.64;51.82
75065;BME280;63646;49.110;9.140;2023-01-26T10:25:15;99848.16;;;20.63;51.40
75065;BME280;63646;49.110;9.140;2023-01-26T10:27:42;99848.28;;;20.62;51.25
75065;BME280;63646;49.110;9.140;2023-01-26T10:30:18;99842.97;;;20.62;51.37
75065;BME280;63646;49.110;9.140;2023-01-26T10:32:45;99842.13;;;20.61;51.28
75065;BME280;63646;49.110;9.140;2023-01-26T10:35:29;99840.44;;;20.60;51.26
75065;BME280;63646;49.110;9.140;2023-01-26T10:37:56;99840.44;;;20.60;51.52
75065;BME280;63646;49.110;9.140;2023-01-26T10:40:22;99836.94;;;20.60;51.29
75065;BME280;63646;49.110;9.140;2023-01-26T10:42:56;99829.00;;;20.60;51.26
75065;BME280;63646;49.110;9.140;2023-01-26T10:48:16;99833.47;;;20.59;51.30
75065;BME280;63646;49.110;9.140;2023-01-26T10:50:42;99833.56;;;20.58;51.42
75065;BME280;63646;49.110;9.140;2023-01-26T10:58:49;99831.75;;;20.58;51.31
75065;BME280;63646;49.110;9.140;2023-01-26T11:01:17;99834.41;;;20.58;51.41
75065;BME280;63646;49.110;9.140;2023-01-26T11:04:08;99823.09;;;20.56;51.28
75065;BME280;63646;49.110;9.140;2023-01-26T11:06:36;99818.63;;;20.57;51.42
75065;BME280;63646;49.110;9.140;2023-01-26T11:09:19;99820.28;;;20.58;51.76
75065;BME280;63646;49.110;9.140;2023-01-26T11:11:59;99814.16;;;20.57;51.42
75065;BME280;63646;49.110;9.140;2023-01-26T11:14:26;99812.06;;;20.61;51.40
75065;BME280;63646;49.110;9.140;2023-01-26T11:19:51;99816.41;;;20.62;52.19
75065;BME280;63646;49.110;9.140;2023-01-26T11:23:03;99804.84;;;20.63;52.77
75065;BME280;63646;49.110;9.140;2023-01-26T11:25:29;99799.38;;;20.64;53.16
75065;BME280;63646;49.110;9.140;2023-01-26T11:43:30;99789.50;;;20.66;52.58
75065;BME280;63646;49.110;9.140;2023-01-26T11:46:21;99789.34;;;20.68;53.21
75065;BME280;63646;49.110;9.140;2023-01-26T11:51:59;99780.13;;;20.72;53.98
75065;BME280;63646;49.110;9.140;2023-01-26T11:59:52;99763.69;;;20.78;54.52
75065;BME280;63646;49.110;9.140;2023-01-26T12:02:37;99764.66;;;20.77;53.05
75065;BME280;63646;49.110;9.140;2023-01-26T12:05:22;99759.06;;;20.80;52.71
75065;BME280;63646;49.110;9.140;2023-01-26T12:08:03;99763.53;;;20.80;52.66
75065;BME280;63646;49.110;9.140;2023-01-26T12:10:35;99755.31;;;20.83;52.53
75065;BME280;63646;49.110;9.140;2023-01-26T12:15:33;99761.34;;;20.85;52.65
75065;BME280;63646;49.110;9.140;2023-01-26T12:33:01;99743.44;;;20.77;52.16
75065;BME280;63646;49.110;9.140;2023-01-26T12:46:30;99721.72;;;20.72;52.29
75065;BME280;63646;49.110;9.140;2023-01-26T12:49:05;99728.59;;;20.74;51.96
75065;BME280;63646;49.110;9.140;2023-01-26T12:51:42;99720.63;;;20.74;51.91
75065;BME280;63646;49.110;9.140;2023-01-26T12:56:52;99714.47;;;20.74;52.24
75065;BME280;63646;49.110;9.140;2023-01-26T12:59:31;99711.69;;;20.75;52.10
75065;BME280;63646;49.110;9.140;2023-01-26T13:02:01;99707.50;;;20.73;51.98
75065;BME280;63646;49.110;9.140;2023-01-26T13:04:34;99708.31;;;20.73;51.99
75065;BME280;63646;49.110;9.140;2023-01-26T13:07:33;99703.97;;;20.72;51.79
75065;BME280;63646;49.110;9.140;2023-01-26T13:10:28;99704.13;;;20.71;52.10
75065;BME280;63646;49.110;9.140;2023-01-26T13:15:38;99702.44;;;20.70;51.78
75065;BME280;63646;49.110;9.140;2023-01-26T13:18:04;99695.44;;;20.69;51.94
75065;BME280;63646;49.110;9.140;2023-01-26T13:20:40;99700.75;;;20.69;51.85
75065;BME280;63646;49.110;9.140;2023-01-26T13:23:39;99698.94;;;20.69;51.92
75065;BME280;63646;49.110;9.140;2023-01-26T13:28:43;99692.91;;;20.67;51.99
75065;BME280;63646;49.110;9.140;2023-01-26T13:31:10;99703.53;;;20.67;51.68
75065;BME280;63646;49.110;9.140;2023-01-26T13:33:35;99697.38;;;20.67;51.36
75065;BME280;63646;49.110;9.140;2023-01-26T13:36:02;99697.38;;;20.67;51.54
75065;BME280;63646;49.110;9.140;2023-01-26T13:38:40;99699.91;;;20.68;51.95
75065;BME280;63646;49.110;9.140;2023-01-26T13:41:08;99699.06;;;20.68;51.55
75065;BME280;63646;49.110;9.140;2023-01-26T13:43:45;99698.22;;;20.67;51.68
75065;BME280;63646;49.110;9.140;2023-01-26T13:48:48;99700.75;;;20.69;52.02
75065;BME280;63646;49.110;9.140;2023-01-26T13:51:36;99699.06;;;20.68;52.08
75065;BME280;63646;49.110;9.140;2023-01-26T13:54:11;99694.84;;;20.65;51.83
75065;BME280;63646;49.110;9.140;2023-01-26T13:56:40;99699.22;;;20.66;51.75
75065;BME280;63646;49.110;9.140;2023-01-26T13:59:07;99704.53;;;20.66;52.01
75065;BME280;63646;49.110;9.140;2023-01-26T14:01:39;99704.63;;;20.65;51.98
75065;BME280;63646;49.110;9.140;2023-01-26T14:04:13;99710.66;;;20.67;51.53
75065;BME280;63646;49.110;9.140;2023-01-26T14:06:43;99704.53;;;20.66;51.68
75065;BME280;63646;49.110;9.140;2023-01-26T14:09:11;99708.00;;;20.67;51.72
75065;BME280;63646;49.110;9.140;2023-01-26T14:11:38;99708.00;;;20.67;51.59
75065;BME280;63646;49.110;9.140;2023-01-26T14:14:04;99708.00;;;20.67;52.17
75065;BME280;63646;49.110;9.140;2023-01-26T14:16:33;99710.66;;;20.67;51.94
75065;BME280;63646;49.110;9.140;2023-01-26T14:19:19;99714.75;;;20.71;52.63
75065;BME280;63646;49.110;9.140;2023-01-26T14:24:11;99709.16;;;20.74;53.08
75065;BME280;63646;49.110;9.140;2023-01-26T14:26:36;99715.16;;;20.76;53.05
75065;BME280;63646;49.110;9.140;2023-01-26T14:29:02;99715.88;;;20.78;53.01
75065;BME280;63646;49.110;9.140;2023-01-26T14:31:35;99717.56;;;20.79;53.18
75065;BME280;63646;49.110;9.140;2023-01-26T14:34:01;99722.88;;;20.79;52.96
75065;BME280;63646;49.110;9.140;2023-01-26T14:36:28;99718.97;;;20.83;53.07
75065;BME280;63646;49.110;9.140;2023-01-26T14:38:57;99719.69;;;20.85;53.26
75065;BME280;63646;49.110;9.140;2023-01-26T14:41:34;99715.38;;;20.84;53.31
75065;BME280;63646;49.110;9.140;2023-01-26T14:44:01;99714.25;;;20.87;53.66
75065;BME280;63646;49.110;9.140;2023-01-26T14:46:41;99717.72;;;20.87;53.18
75065;BME280;63646;49.110;9.140;2023-01-26T14:49:17;99715.78;;;20.89;53.47
75065;BME280;63646;49.110;9.140;2023-01-26T14:51:43;99714.13;;;20.88;53.52
75065;BME280;63646;49.110;9.140;2023-01-26T14:54:17;99726.56;;;20.88;53.58
75065;BME280;63646;49.110;9.140;2023-01-26T14:56:46;99714.25;;;20.87;53.54
75065;BME280;63646;49.110;9.140;2023-01-26T14:59:21;99723.19;;;20.86;53.43
75065;BME280;63646;49.110;9.140;2023-01-26T15:01:48;99720.38;;;20.87;53.75
75065;BME280;63646;49.110;9.140;2023-01-26T15:04:24;99728.25;;;20.89;53.76
75065;BME280;63646;49.110;9.140;2023-01-26T15:06:52;99736.22;;;20.89;53.36
75065;BME280;63646;49.110;9.140;2023-01-26T15:09:25;99734.38;;;20.89;53.78
75065;BME280;63646;49.110;9.140;2023-01-26T15:11:53;99737.03;;;20.89;53.52
75065;BME280;63646;49.110;9.140;2023-01-26T15:17:50;99736.06;;;20.90;53.95
75065;BME280;63646;49.110;9.140;2023-01-26T15:22:51;99744.28;;;20.87;53.62
75065;BME280;63646;49.110;9.140;2023-01-26T15:25:23;99745.00;;;20.89;53.79
75065;BME280;63646;49.110;9.140;2023-01-26T15:27:56;99752.00;;;20.90;53.80
75065;BME280;63646;49.110;9.140;2023-01-26T15:30:27;99743.19;;;20.90;53.82
75065;BME280;63646;49.110;9.140;2023-01-26T15:32:53;99746.69;;;20.90;53.94
75065;BME280;63646;49.110;9.140;2023-01-26T15:35:27;99750.31;;;20.89;53.46
75065;BME280;63646;49.110;9.140;2023-01-26T15:38:07;99750.31;;;20.89;53.64
75065;BME280;63646;49.110;9.140;2023-01-26T15:40:33;99738.72;;;20.90;53.67
75065;BME280;63646;49.110;9.140;2023-01-26T15:43:16;99751.03;;;20.91;53.68
75065;BME280;63646;49.110;9.140;2023-01-26T15:45:56;99745.84;;;20.90;53.45
75065;BME280;63646;49.110;9.140;2023-01-26T15:48:23;99740.53;;;20.90;53.45
75065;BME280;63646;49.110;9.140;2023-01-26T15:50:49;99748.38;;;20.91;53.23
75065;BME280;63646;49.110;9.140;2023-01-26T15:53:19;99743.91;;;20.92;53.80
75065;BME280;63646;49.110;9.140;2023-01-26T15:55:46;99750.19;;;20.91;53.87
75065;BME280;63646;49.110;9.140;2023-01-26T15:58:23;99744.03;;;20.90;53.62
75065;BME280;63646;49.110;9.140;2023-01-26T16:00:49;99750.31;;;20.89;53.58
75065;BME280;63646;49.110;9.140;2023-01-26T16:03:16;99743.09;;;20.91;53.27
75065;BME280;63646;49.110;9.140;2023-01-26T16:05:43;99749.34;;;20.90;53.29
75065;BME280;63646;49.110;9.140;2023-01-26T16:08:11;99745.72;;;20.91;53.37
75065;BME280;63646;49.110;9.140;2023-01-26T16:10:37;99749.34;;;20.90;53.15
75065;BME280;63646;49.110;9.140;2023-01-26T16:13:07;99744.75;;;20.92;52.99
75065;BME280;63646;49.110;9.140;2023-01-26T16:15:42;99746.94;;;20.87;53.21
75065;BME280;63646;49.110;9.140;2023-01-26T16:18:09;99745.16;;;20.88;52.78
75065;BME280;63646;49.110;9.140;2023-01-26T16:20:36;99743.47;;;20.87;52.66
75065;BME280;63646;49.110;9.140;2023-01-26T16:25:42;99741.94;;;20.84;52.67
75065;BME280;63646;49.110;9.140;2023-01-26T16:28:07;99750.84;;;20.83;52.41
75065;BME280;63646;49.110;9.140;2023-01-26T16:30:33;99747.50;;;20.81;52.17
75065;BME280;63646;49.110;9.140;2023-01-26T16:32:58;99751.97;;;20.81;52.70
75065;BME280;63646;49.110;9.140;2023-01-26T16:35:25;99751.41;;;20.77;52.54
75065;BME280;63646;49.110;9.140;2023-01-26T16:37:50;99751.41;;;20.77;52.00
75065;BME280;63646;49.110;9.140;2023-01-26T16:40:18;99760.31;;;20.76;51.95
75065;BME280;63646;49.110;9.140;2023-01-26T16:42:45;99759.63;;;20.74;52.23
75065;BME280;63646;49.110;9.140;2023-01-26T16:45:21;99758.91;;;20.72;52.28
75065;BME280;63646;49.110;9.140;2023-01-26T16:47:51;99764.94;;;20.74;52.33
75065;BME280;63646;49.110;9.140;2023-01-26T16:50:19;99761.44;;;20.73;52.64
75065;BME280;63646;49.110;9.140;2023-01-26T16:52:45;99756.13;;;20.73;52.61
75065;BME280;63646;49.110;9.140;2023-01-26T16:55:12;99755.28;;;20.73;52.39
75065;BME280;63646;49.110;9.140;2023-01-26T16:57:41;99750.94;;;20.72;52.54
75065;BME280;63646;49.110;9.140;2023-01-26T17:00:13;99758.91;;;20.72;52.31
75065;BME280;63646;49.110;9.140;2023-01-26T17:02:41;99765.19;;;20.71;52.70
75065;BME280;63646;49.110;9.140;2023-01-26T17:05:15;99760.72;;;20.71;52.73
75065;BME280;63646;49.110;9.140;2023-01-26T17:07:41;99774.00;;;20.71;52.96
75065;BME280;63646;49.110;9.140;2023-01-26T17:10:08;99768.69;;;20.71;52.58
75065;BME280;63646;49.110;9.140;2023-01-26T17:12:34;99767.84;;;20.71;52.61
75065;BME280;63646;49.110;9.140;2023-01-26T17:15:00;99766.16;;;20.70;52.90
75065;BME280;63646;49.110;9.140;2023-01-26T17:17:25;99771.47;;;20.70;52.27
75065;BME280;63646;49.110;9.140;2023-01-26T17:19:51;99771.47;;;20.70;52.65
75065;BME280;63646;49.110;9.140;2023-01-26T17:22:16;99766.16;;;20.70;52.63
75065;BME280;63646;49.110;9.140;2023-01-26T17:24:42;99768.81;;;20.70;52.55
75065;BME280;63646;49.110;9.140;2023-01-26T17:27:08;99767.13;;;20.69;52.63
75065;BME280;63646;49.110;9.140;2023-01-26T17:29:36;99766.16;;;20.70;52.47
75065;BME280;63646;49.110;9.140;2023-01-26T17:32:05;99761.81;;;20.69;52.34
75065;BME280;63646;49.110;9.140;2023-01-26T17:34:30;99763.50;;;20.70;52.62
75065;BME280;63646;49.110;9.140;2023-01-26T17:36:56;99765.34;;;20.69;52.55
75065;BME280;63646;49.110;9.140;2023-01-26T17:39:22;99755.56;;;20.70;52.65
75065;BME280;63646;49.110;9.140;2023-01-26T17:41:48;99754.56;;;20.71;52.35
75065;BME280;63646;49.110;9.140;2023-01-26T17:44:15;99758.22;;;20.70;52.62
75065;BME280;63646;49.110;9.140;2023-01-26T17:46:40;99759.03;;;20.70;52.66
75065;BME280;63646;49.110;9.140;2023-01-26T17:49:06;99764.22;;;20.72;52.75
75065;BME280;63646;49.110;9.140;2023-01-26T17:51:31;99763.25;;;20.73;52.50
75065;BME280;63646;49.110;9.140;2023-01-26T17:53:56;99771.22;;;20.73;52.63
75065;BME280;63646;49.110;9.140;2023-01-26T17:56:22;99768.44;;;20.74;52.67
75065;BME280;63646;49.110;9.140;2023-01-26T17:58:49;99764.78;;;20.75;52.90
75065;BME280;63646;49.110;9.140;2023-01-26T18:01:16;99761.16;;;20.77;52.71
75065;BME280;63646;49.110;9.140;2023-01-26T18:03:42;99769.00;;;20.78;53.11
75065;BME280;63646;49.110;9.140;2023-01-26T18:06:08;99771.41;;;20.81;53.04
75065;BME280;63646;49.110;9.140;2023-01-26T18:08:35;99773.91;;;20.83;53.05
75065;BME280;63646;49.110;9.140;2023-01-26T18:11:02;99769.19;;;20.86;53.00
75065;BME280;63646;49.110;9.140;2023-01-26T18:13:30;99776.06;;;20.89;53.22
75065;BME280;63646;49.110;9.140;2023-01-26T18:15:56;99773.25;;;20.90;53.14
75065;BME280;63646;49.110;9.140;2023-01-26T18:18:27;99781.78;;;20.94;52.72
75065;BME280;63646;49.110;9.140;2023-01-26T18:20:53;99772.00;;;20.94;53.23
75065;BME280;63646;49.110;9.140;2023-01-26T18:23:21;99776.22;;;20.97;53.04
75065;BME280;63646;49.110;9.140;2023-01-26T18:25:47;99774.41;;;20.97;52.72
75065;BME280;63646;49.110;9.140;2023-01-26T18:28:14;99781.53;;;20.97;52.99
75065;BME280;63646;49.110;9.140;2023-01-26T18:30:40;99789.34;;;20.98;52.98
75065;BME280;63646;49.110;9.140;2023-01-26T18:33:06;99789.34;;;20.98;52.99
75065;BME280;63646;49.110;9.140;2023-01-26T18:35:33;99786.69;;;20.98;53.05
75065;BME280;63646;49.110;9.140;2023-01-26T18:38:00;99787.56;;;20.99;53.36
75065;BME280;63646;49.110;9.140;2023-01-26T18:40:26;99788.53;;;20.98;53.58
75065;BME280;63646;49.110;9.140;2023-01-26T18:42:55;99792.47;;;20.73;48.71
75065;BME280;63646;49.110;9.140;2023-01-26T18:45:21;99784.19;;;20.66;49.06
75065;BME280;63646;49.110;9.140;2023-01-26T18:47:48;99793.81;;;20.67;49.48
75065;BME280;63646;49.110;9.140;2023-01-26T18:50:14;99785.72;;;20.69;48.26
75065;BME280;63646;49.110;9.140;2023-01-26T18:52:39;99788.09;;;20.72;49.15
75065;BME280;63646;49.110;9.140;2023-01-26T18:55:07;99781.84;;;20.73;49.18
75065;BME280;63646;49.110;9.140;2023-01-26T18:57:32;99786.19;;;20.74;49.61
75065;BME280;63646;49.110;9.140;2023-01-26T18:59:58;99783.38;;;20.75;49.75
75065;BME280;63646;49.110;9.140;2023-01-26T19:02:23;99780.72;;;20.75;49.65
75065;BME280;63646;49.110;9.140;2023-01-26T19:04:49;99781.56;;;20.76;49.80
75065;BME280;63646;49.110;9.140;2023-01-26T19:07:18;99787.59;;;20.78;50.17
75065;BME280;63646;49.110;9.140;2023-01-26T19:09:43;99787.72;;;20.77;49.55
75065;BME280;63646;49.110;9.140;2023-01-26T19:12:09;99784.94;;;20.78;49.89
75065;BME280;63646;49.110;9.140;2023-01-26T19:14:34;99792.06;;;20.78;50.09
75065;BME280;63646;49.110;9.140;2023-01-26T19:17:00;99781.56;;;20.76;49.74
75065;BME280;63646;49.110;9.140;2023-01-26T19:19:25;99787.72;;;20.77;50.30
75065;BME280;63646;49.110;9.140;2023-01-26T19:21:51;99785.06;;;20.77;50.56
75065;BME280;63646;49.110;9.140;2023-01-26T19:24:16;99781.69;;;20.74;50.63
75065;BME280;63646;49.110;9.140;2023-01-26T19:26:41;99781.69;;;20.74;50.49
75065;BME280;63646;49.110;9.140;2023-01-26T19:29:09;99775.41;;;20.75;50.75
75065;BME280;63646;49.110;9.140;2023-01-26T19:31:34;99774.56;;;20.75;50.83
75065;BME280;63646;49.110;9.140;2023-01-26T19:34:02;99774.72;;;20.73;50.88
75065;BME280;63646;49.110;9.140;2023-01-26T19:36:30;99777.22;;;20.75;50.94
75065;BME280;63646;49.110;9.140;2023-01-26T19:38:56;99781.84;;;20.73;51.06
75065;BME280;63646;49.110;9.140;2023-01-26T19:41:23;99771.22;;;20.73;51.16
75065;BME280;63646;49.110;9.140;2023-01-26T19:43:49;99774.00;;;20.71;51.14
75065;BME280;63646;49.110;9.140;2023-01-26T19:46:15;99775.81;;;20.71;50.78
75065;BME280;63646;49.110;9.140;2023-01-26T19:48:41;99774.13;;;20.70;51.04